createdAt,value
2019-04-25T00:00:24.965Z,3.05
2019-04-25T00:03:15.054Z,2.10
2019-04-25T00:06:04.739Z,1.80
2019-04-25T00:08:53.511Z,1.92
2019-04-25T00:11:46.583Z,2.00
2019-04-25T00:14:34.130Z,1.40
2019-04-25T00:17:24.926Z,2.15
2019-04-25T00:20:13.895Z,1.50
2019-04-25T00:23:04.652Z,1.70
2019-04-25T00:25:58.238Z,1.90
2019-04-25T00:28:47.090Z,1.30
2019-04-25T00:31:36.511Z,1.47
2019-04-25T00:34:26.243Z,1.62
2019-04-25T00:37:14.969Z,1.30
2019-04-25T00:40:05.997Z,1.32
2019-04-25T00:42:54.767Z,1.20
2019-04-25T00:45:44.570Z,1.30
2019-04-25T00:48:34.581Z,1.75
2019-04-25T00:51:23.890Z,1.50
2019-04-25T00:54:12.461Z,1.45
2019-04-25T00:57:02.165Z,1.50
2019-04-25T00:59:54.123Z,1.50
2019-04-25T01:02:57.560Z,1.60
2019-04-25T01:05:47.498Z,1.87
2019-04-25T01:08:36.323Z,2.10
2019-04-25T01:11:25.513Z,1.57
2019-04-25T01:14:15.055Z,1.80
2019-04-25T01:17:03.911Z,2.15
2019-04-25T01:19:54.822Z,3.05
2019-04-25T01:22:44.068Z,1.80
2019-04-25T01:25:41.069Z,5.03
2019-04-25T01:28:24.499Z,2.47
2019-04-25T01:31:15.378Z,2.08
2019-04-25T01:34:06.279Z,1.98
2019-04-25T01:36:57.195Z,2.98
2019-04-25T01:39:55.071Z,1.65
2019-04-25T01:42:48.224Z,1.98
2019-04-25T01:45:37.407Z,1.50
2019-04-25T01:48:26.558Z,1.40
2019-04-25T01:51:15.318Z,2.17
2019-04-25T01:54:04.479Z,2.00
2019-04-25T01:56:55.903Z,1.60
2019-04-25T01:59:44.663Z,1.95
2019-04-25T02:02:33.675Z,1.65
2019-04-25T02:05:23.775Z,2.77
2019-04-25T02:08:14.321Z,2.20
2019-04-25T02:11:14.849Z,2.50
2019-04-25T02:14:05.224Z,3.05
2019-04-25T02:16:55.947Z,3.70
2019-04-25T02:19:45.414Z,3.90
2019-04-25T02:22:35.715Z,4.10
2019-04-25T02:25:25.273Z,4.70
2019-04-25T02:28:15.891Z,5.12
2019-04-25T02:31:08.820Z,5.75
2019-04-25T02:34:00.170Z,5.80
2019-04-25T02:36:47.392Z,6.20
2019-04-25T02:39:37.615Z,7.70
2019-04-25T02:42:27.582Z,6.47
2019-04-25T02:45:24.404Z,7.42
2019-04-25T02:48:19.825Z,8.20
2019-04-25T02:51:20.221Z,8.33
2019-04-25T02:54:09.832Z,8.70
2019-04-25T02:56:59.844Z,8.33
2019-04-25T02:59:49.405Z,10.10
2019-04-25T03:02:38.462Z,9.13
2019-04-25T03:05:27.851Z,9.28
2019-04-25T03:08:16.376Z,9.30
2019-04-25T03:11:07.558Z,8.58
2019-04-25T03:13:57.770Z,9.85
2019-04-25T03:16:48.397Z,10.45
2019-04-25T03:19:56.456Z,10.80
2019-04-25T03:22:45.770Z,9.93
2019-04-25T03:25:34.563Z,10.20
2019-04-25T03:28:24.928Z,11.55
2019-04-25T03:31:21.915Z,10.50
2019-04-25T03:34:09.489Z,11.20
2019-04-25T03:36:55.497Z,11.45
2019-04-25T03:39:44.766Z,11.48
2019-04-25T03:42:33.967Z,11.35
2019-04-25T03:45:23.698Z,11.00
2019-04-25T03:48:14.173Z,11.18
2019-04-25T03:51:05.411Z,11.65
2019-04-25T03:53:54.442Z,12.10
2019-04-25T03:56:51.946Z,11.85
2019-04-25T03:59:34.298Z,11.60
2019-04-25T04:02:23.539Z,10.82
2019-04-25T04:05:13.935Z,11.95
2019-04-25T04:08:05.629Z,11.48
2019-04-25T04:10:55.178Z,12.35
2019-04-25T04:13:44.619Z,12.20
2019-04-25T04:16:35.775Z,11.50
2019-04-25T04:19:26.355Z,12.45
2019-04-25T04:22:20.108Z,11.90
2019-04-25T04:25:11.626Z,13.60
2019-04-25T04:28:00.256Z,14.75
2019-04-25T04:30:49.655Z,16.05
2019-04-25T04:33:38.122Z,15.15
2019-04-25T04:36:27.384Z,15.25
2019-04-25T04:39:17.782Z,15.45
2019-04-25T04:42:08.433Z,15.35
2019-04-25T04:44:57.394Z,14.23
2019-04-25T04:47:46.919Z,13.53
2019-04-25T04:50:35.689Z,13.18
2019-04-25T04:53:24.635Z,12.20
2019-04-25T04:56:15.105Z,10.63
2019-04-25T04:59:03.993Z,10.40
2019-04-25T05:01:58.314Z,9.20
2019-04-25T05:30:23.652Z,7.83
2019-04-25T05:33:14.664Z,7.12
2019-04-25T05:36:03.752Z,6.55
2019-04-25T05:38:53.979Z,6.77
2019-04-25T05:41:48.836Z,6.13
2019-04-25T05:44:38.127Z,5.77
2019-04-25T05:47:27.687Z,5.90
2019-04-25T05:50:16.480Z,5.73
2019-04-25T06:16:01.469Z,4.50
2019-04-25T07:50:24.159Z,2.10
2019-04-25T07:53:14.239Z,2.20
2019-04-25T08:04:35.721Z,2.50
2019-04-25T08:07:24.905Z,2.33
2019-04-25T08:10:16.313Z,1.90
2019-04-25T08:13:08.099Z,2.43
2019-04-25T08:15:58.578Z,2.03
2019-04-25T08:18:48.701Z,1.97
2019-04-25T08:21:38.677Z,2.35
2019-04-25T08:24:30.774Z,2.50
2019-04-25T08:27:20.654Z,1.80
2019-04-25T08:30:10.327Z,2.50
2019-04-25T08:32:59.413Z,2.70
2019-04-25T08:36:04.553Z,1.72
2019-04-25T08:38:40.288Z,1.50
2019-04-25T08:41:30.983Z,1.70
2019-04-25T08:44:24.224Z,2.27
2019-04-25T08:47:14.608Z,2.23
2019-04-25T08:50:08.634Z,2.20
2019-04-25T08:52:57.378Z,1.65
2019-04-25T08:55:50.234Z,1.77
2019-04-25T08:59:05.526Z,1.67
2019-04-25T09:01:49.852Z,1.30
2019-04-25T09:04:57.078Z,1.90
2019-04-25T09:07:46.420Z,2.33
2019-04-25T09:10:38.411Z,1.50
2019-04-25T09:13:26.766Z,1.53
2019-04-25T09:16:16.600Z,1.60
2019-04-25T09:19:05.711Z,1.85
2019-04-25T09:21:55.226Z,2.35
2019-04-25T09:24:45.289Z,1.80
2019-04-25T09:27:35.803Z,2.02
2019-04-25T09:30:25.437Z,2.05
2019-04-25T09:33:15.282Z,1.45
2019-04-25T09:36:06.778Z,1.40
2019-04-25T09:38:58.123Z,1.40
2019-04-25T09:41:47.420Z,1.47
2019-04-25T09:44:39.355Z,1.47
2019-04-25T09:47:27.977Z,1.77
2019-04-25T09:50:35.476Z,1.60
2019-04-25T09:53:25.987Z,1.30
2019-04-25T09:56:17.732Z,1.70
2019-04-25T09:59:26.515Z,1.70
2019-04-25T10:02:06.937Z,1.90
2019-04-25T10:04:55.794Z,1.73
2019-04-25T10:07:46.325Z,2.10
2019-04-25T10:10:35.980Z,1.93
2019-04-25T10:13:25.607Z,2.83
2019-04-25T10:16:15.401Z,2.07
2019-04-25T10:19:04.417Z,1.90
2019-04-25T10:21:55.287Z,2.03
2019-04-25T10:24:58.400Z,1.73
2019-04-25T10:27:35.757Z,1.37
2019-04-25T10:30:26.016Z,2.00
2019-04-25T10:33:17.359Z,1.70
2019-04-25T10:36:10.499Z,2.70
2019-04-25T10:39:06.864Z,2.80
2019-04-25T10:41:50.196Z,2.90
2019-04-25T10:44:40.190Z,2.17
2019-04-25T10:47:30.768Z,1.83
2019-04-25T10:50:20.082Z,1.63
2019-04-25T10:53:08.683Z,2.17
2019-04-25T10:55:58.061Z,2.00
2019-04-25T10:58:47.986Z,1.73
2019-04-25T11:01:37.733Z,1.77
2019-04-25T11:04:28.905Z,2.50
2019-04-25T11:07:18.109Z,2.23
2019-04-25T11:10:08.094Z,1.80
2019-04-25T11:12:57.716Z,2.07
2019-04-25T11:15:47.045Z,2.10
2019-04-25T11:18:36.855Z,2.57
2019-04-25T11:21:25.794Z,2.10
2019-04-25T11:24:15.184Z,1.90
2019-04-25T11:27:04.665Z,1.93
2019-04-25T11:30:08.233Z,2.13
2019-04-25T11:32:45.186Z,2.20
2019-04-25T11:35:34.701Z,2.07
2019-04-25T11:38:25.148Z,1.80
2019-04-25T11:41:15.700Z,1.90
2019-04-25T11:44:04.500Z,1.80
2019-04-25T11:46:53.828Z,1.77
2019-04-25T11:49:44.800Z,2.40
2019-04-25T11:52:33.865Z,1.60
2019-04-25T11:55:23.892Z,1.70
2019-04-25T11:58:14.303Z,1.47
2019-04-25T12:01:05.225Z,2.63
2019-04-25T12:03:55.170Z,1.80
2019-04-25T12:06:47.418Z,1.73
2019-04-25T12:09:36.626Z,1.23
2019-04-25T12:12:25.231Z,1.53
2019-04-25T12:15:14.930Z,1.50
2019-04-25T12:18:05.265Z,1.97
2019-04-25T12:20:55.446Z,1.43
2019-04-25T12:23:47.365Z,1.40
2019-04-25T12:26:35.504Z,1.77
2019-04-25T12:29:25.254Z,1.60
2019-04-25T12:32:14.421Z,1.80
2019-04-25T12:35:06.185Z,1.13
2019-04-25T12:37:56.416Z,1.63
2019-04-25T12:40:47.365Z,1.10
2019-04-25T12:43:38.175Z,1.50
2019-04-25T12:46:34.627Z,2.10
2019-04-25T12:49:24.171Z,1.70
2019-04-25T12:52:13.550Z,1.40
2019-04-25T12:55:04.055Z,1.60
2019-04-25T12:57:55.400Z,1.80
2019-04-25T13:00:49.453Z,1.40
2019-04-25T13:03:36.156Z,1.80
2019-04-25T13:06:24.975Z,2.00
2019-04-25T13:09:14.897Z,1.70
2019-04-25T13:12:05.897Z,2.03
2019-04-25T13:14:55.682Z,1.40
2019-04-25T13:17:44.604Z,2.03
2019-04-25T13:20:35.155Z,1.90
2019-04-25T13:23:24.379Z,2.30
2019-04-25T13:26:14.577Z,1.97
2019-04-25T13:29:21.288Z,2.37
2019-04-25T13:32:12.354Z,2.00
2019-04-25T13:35:03.832Z,1.40
2019-04-25T13:37:53.986Z,1.80
2019-04-25T13:40:43.100Z,1.47
2019-04-25T13:43:32.811Z,1.90
2019-04-25T13:46:25.835Z,2.00
2019-04-25T13:49:14.097Z,1.53
2019-04-25T13:52:04.606Z,1.57
2019-04-25T13:54:54.078Z,2.20
2019-04-25T13:57:43.343Z,3.07
2019-04-25T14:00:34.863Z,3.70
2019-04-25T14:03:24.968Z,4.33
2019-04-25T14:06:14.560Z,2.00
2019-04-25T14:09:04.792Z,2.13
2019-04-25T14:11:54.060Z,1.93
2019-04-25T14:14:44.121Z,2.00
2019-04-25T14:17:50.833Z,1.60
2019-04-25T14:20:50.075Z,1.90
2019-04-25T14:23:39.134Z,1.87
2019-04-25T14:26:29.127Z,1.50
2019-04-25T14:29:18.734Z,2.20
2019-04-25T14:32:09.199Z,1.67
2019-04-25T14:34:58.441Z,1.30
2019-04-25T14:37:47.080Z,2.30
2019-04-25T14:40:36.027Z,1.80
2019-04-25T14:43:26.163Z,2.00
2019-04-25T14:46:15.182Z,1.90
2019-04-25T14:49:04.947Z,2.10
2019-04-25T14:51:54.015Z,1.67
2019-04-25T14:54:45.221Z,2.80
2019-04-25T14:57:35.015Z,1.97
2019-04-25T15:00:32.544Z,2.10
2019-04-25T15:03:21.381Z,1.57
2019-04-25T15:06:10.266Z,2.13
2019-04-25T15:08:59.582Z,1.40
2019-04-25T15:11:48.803Z,1.40
2019-04-25T15:14:37.989Z,2.13
2019-04-25T15:17:27.106Z,1.73
2019-04-25T15:20:16.404Z,1.60
2019-04-25T15:23:05.520Z,1.50
2019-04-25T15:25:54.806Z,1.30
2019-04-25T15:28:43.813Z,1.40
2019-04-25T15:31:33.364Z,1.50
2019-04-25T15:34:25.826Z,1.87
2019-04-25T15:37:16.437Z,2.10
2019-04-25T15:40:21.386Z,4.50
2019-04-25T15:43:12.355Z,1.83
2019-04-25T15:46:03.894Z,1.60
2019-04-25T15:48:53.593Z,2.10
2019-04-25T15:51:42.147Z,1.40
2019-04-25T15:54:31.711Z,1.37
2019-04-25T15:57:20.748Z,1.93
2019-04-25T16:00:11.850Z,3.07
2019-04-25T16:03:01.302Z,1.80
2019-04-25T16:05:50.441Z,2.00
2019-04-25T16:08:39.381Z,1.60
2019-04-25T16:11:28.252Z,1.60
2019-04-25T16:14:17.402Z,1.40
2019-04-25T16:17:06.434Z,2.00
2019-04-25T16:19:55.724Z,1.50
2019-04-25T16:22:45.026Z,1.70
2019-04-25T16:25:34.301Z,1.90
2019-04-25T16:28:23.599Z,1.70
2019-04-25T16:31:14.572Z,1.40
2019-04-25T16:34:03.842Z,2.20
2019-04-25T16:36:53.131Z,1.30
2019-04-25T16:39:42.624Z,1.87
2019-04-25T16:42:32.193Z,2.03
2019-04-25T16:45:21.779Z,2.80
2019-04-25T16:48:11.244Z,1.47
2019-04-25T16:51:00.467Z,1.67
2019-04-25T16:53:49.693Z,1.83
2019-04-25T16:56:39.131Z,1.63
2019-04-25T16:59:29.475Z,2.20
2019-04-25T17:02:32.089Z,1.80
2019-04-25T17:05:11.280Z,2.00
2019-04-25T17:08:00.640Z,2.00
2019-04-25T17:10:49.736Z,2.20
2019-04-25T17:13:40.604Z,2.40
2019-04-25T17:16:31.387Z,1.47
2019-04-25T17:19:24.367Z,1.90
2019-04-25T17:22:13.853Z,1.93
2019-04-25T17:25:03.254Z,2.47
2019-04-25T17:27:52.582Z,2.67
2019-04-25T17:30:44.141Z,4.50
2019-04-25T17:33:34.537Z,2.03
2019-04-25T17:36:25.482Z,2.10
2019-04-25T17:39:34.116Z,1.93
2019-04-25T17:42:23.177Z,1.80
2019-04-25T17:45:14.396Z,1.73
2019-04-25T17:48:04.157Z,1.50
2019-04-25T17:50:53.365Z,1.90
2019-04-25T17:53:43.286Z,1.90
2019-04-25T17:56:32.167Z,2.17
2019-04-25T17:59:23.437Z,1.73
2019-04-25T18:02:13.087Z,1.50
2019-04-25T18:05:02.010Z,1.60
2019-04-25T18:07:50.899Z,2.37
2019-04-25T18:10:40.230Z,2.33
2019-04-25T18:13:29.233Z,2.00
2019-04-25T18:16:27.459Z,1.70
2019-04-25T18:19:18.510Z,1.97
2019-04-25T18:22:09.326Z,3.03
2019-04-25T18:24:57.989Z,1.47
2019-04-25T18:27:57.335Z,1.63
2019-04-25T18:30:47.158Z,1.63
2019-04-25T18:33:37.248Z,1.77
2019-04-25T18:36:45.083Z,2.00
2019-04-25T18:39:38.468Z,1.80
2019-04-25T18:42:42.964Z,1.77
2019-04-25T18:45:35.872Z,2.17
2019-04-25T18:48:26.291Z,1.63
2019-04-25T18:51:15.252Z,1.53
2019-04-25T18:54:05.591Z,1.87
2019-04-25T18:57:08.882Z,1.90
2019-04-25T19:00:15.650Z,1.57
2019-04-25T19:03:25.988Z,2.30
2019-04-25T19:06:15.598Z,1.67
2019-04-25T19:09:07.723Z,1.40
2019-04-25T19:11:56.879Z,2.30
2019-04-25T19:14:45.364Z,1.73
2019-04-25T19:17:34.845Z,1.83
2019-04-25T19:20:24.066Z,1.67
2019-04-25T19:23:13.425Z,1.87
2019-04-25T19:26:02.024Z,29.40
2019-04-25T19:28:51.822Z,2.50
2019-04-25T19:31:42.164Z,11.57
2019-04-25T19:34:31.475Z,3.70
2019-04-25T19:37:21.088Z,2.10
2019-04-25T19:40:20.830Z,1.97
2019-04-25T19:43:29.468Z,1.97
2019-04-25T19:46:18.825Z,1.60
2019-04-25T19:49:08.639Z,1.80
2019-04-25T19:51:58.087Z,1.80
2019-04-25T19:54:47.319Z,2.57
2019-04-25T19:57:36.607Z,1.90
2019-04-25T20:00:26.042Z,2.00
2019-04-25T20:03:16.840Z,2.50
2019-04-25T20:06:10.083Z,1.63
2019-04-25T20:09:02.953Z,1.83
2019-04-25T20:11:53.623Z,2.13
2019-04-25T20:14:44.431Z,2.60
2019-04-25T20:17:33.872Z,2.20
2019-04-25T20:20:22.370Z,1.80
2019-04-25T20:23:11.599Z,1.70
2019-04-25T20:26:00.628Z,1.90
2019-04-25T20:28:49.502Z,1.93
2019-04-25T20:31:38.571Z,2.17
2019-04-25T20:34:27.797Z,2.17
2019-04-25T20:37:16.847Z,2.33
2019-04-25T20:40:08.849Z,1.90
2019-04-25T20:42:58.083Z,2.40
2019-04-25T20:45:46.934Z,2.53
2019-04-25T20:48:37.457Z,2.40
2019-04-25T20:51:27.000Z,2.10
2019-04-25T20:54:16.175Z,1.82
2019-04-25T20:57:05.550Z,2.00
2019-04-25T20:59:55.977Z,1.50
2019-04-25T21:02:45.160Z,2.00
2019-04-25T21:05:34.277Z,3.37
2019-04-25T21:08:24.566Z,1.90
2019-04-25T21:11:14.072Z,1.60
2019-04-25T21:14:02.716Z,1.97
2019-04-25T21:16:53.869Z,2.50
2019-04-25T21:19:48.879Z,2.90
2019-04-25T21:22:38.586Z,1.57
2019-04-25T21:25:27.497Z,1.82
2019-04-25T21:28:17.054Z,1.73
2019-04-25T21:31:05.803Z,1.80
2019-04-25T21:33:55.278Z,2.10
2019-04-25T21:36:45.368Z,1.77
2019-04-25T21:39:46.045Z,1.70
2019-04-25T21:42:36.883Z,1.83
2019-04-25T21:45:28.593Z,1.60
2019-04-25T21:48:18.501Z,1.97
2019-04-25T21:51:25.638Z,1.77
2019-04-25T21:54:14.140Z,2.05
2019-04-25T21:57:04.116Z,1.60
2019-04-25T22:00:00.314Z,1.55
2019-04-25T22:02:43.836Z,2.00
2019-04-25T22:05:33.172Z,1.70
2019-04-25T22:08:23.270Z,1.65
2019-04-25T22:11:12.562Z,1.75
2019-04-25T22:14:01.757Z,1.75
2019-04-25T22:16:52.023Z,5.05
2019-04-25T22:19:41.041Z,1.25
2019-04-25T22:22:30.947Z,1.70
2019-04-25T22:25:20.234Z,1.40
2019-04-25T22:28:09.918Z,2.70
2019-04-25T22:31:01.369Z,1.40
2019-04-25T22:34:08.325Z,1.82
2019-04-25T22:36:57.685Z,1.50
2019-04-25T22:39:47.745Z,2.50
2019-04-25T22:42:37.151Z,1.65
2019-04-25T22:45:26.766Z,1.82
2019-04-25T22:48:17.608Z,1.45
2019-04-25T22:51:07.956Z,1.82
2019-04-25T22:53:57.744Z,1.50
2019-04-25T22:56:46.303Z,1.52
2019-04-25T22:59:35.551Z,1.57
2019-04-25T23:02:25.824Z,1.85
2019-04-25T23:05:22.671Z,1.30
2019-04-25T23:08:12.617Z,1.52
2019-04-25T23:11:02.858Z,1.80
2019-04-25T23:13:52.548Z,1.50
2019-04-25T23:16:42.334Z,1.50
2019-04-25T23:19:31.478Z,1.57
2019-04-25T23:22:21.103Z,1.80
2019-04-25T23:25:14.122Z,1.62
2019-04-25T23:28:06.452Z,1.60
2019-04-25T23:31:00.188Z,2.20
2019-04-25T23:33:49.249Z,1.40
2019-04-25T23:36:38.267Z,1.60
2019-04-25T23:39:27.821Z,1.55
2019-04-25T23:42:16.670Z,1.50
2019-04-25T23:45:08.108Z,1.85
2019-04-25T23:47:57.424Z,1.55
2019-04-25T23:50:46.194Z,1.50
2019-04-25T23:53:35.201Z,1.40
2019-04-25T23:56:24.083Z,1.72
2019-04-25T23:59:13.551Z,1.52
